EDT,Max TemperatureF,Mean TemperatureF,Min TemperatureF,Max Dew PointF,MeanDew PointF,Min DewpointF,Max Humidity, Mean Humidity, Min Humidity, Max Sea Level PressureIn, Mean Sea Level PressureIn, Min Sea Level PressureIn, Max VisibilityMiles, Mean VisibilityMiles, Min VisibilityMiles, Max Wind SpeedMPH, Mean Wind SpeedMPH, Max Gust SpeedMPH,PrecipitationIn, CloudCover, Events, WindDirDegrees
2010-5-1,77,64,51,66,60,49,90,77,64,30.03,29.97,29.91,10,9,6,23,8,33,0.03,5,Rain,171
2010-5-2,80,73,66,67,65,63,87,73,58,30.01,29.93,29.86,10,10,7,25,14,35,T,5,Rain,185
2010-5-3,73,69,65,67,65,62,100,84,68,30.01,29.93,29.81,10,8,2,20,10,26,1.17,5,Rain,189
2010-5-4,79,67,54,63,49,39,100,63,25,30.00,29.95,29.88,10,10,8,18,7,24,0.00,1,,345
2010-5-5,80,64,48,57,51,46,93,66,38,30.04,29.97,29.91,10,10,10,14,4,18,0.00,2,,166
2010-5-6,83,69,54,58,56,51,100,67,34,30.00,29.95,29.89,10,10,5,21,5,26,0.00,1,,346
2010-5-7,82,67,51,62,54,50,100,70,39,30.09,30.01,29.89,10,6,0,20,6,26,0.00,1,Fog,177
2010-5-8,71,61,51,62,45,27,87,56,24,30.07,29.91,29.79,10,10,9,26,14,32,0.00,1,,331
2010-5-9,63,54,44,37,33,30,66,48,30,30.26,30.18,30.07,10,10,10,28,13,38,0.00,0,,347
2010-5-10,58,48,38,47,39,34,93,68,43,30.34,30.30,30.24,10,10,9,14,4,18,0.06,2,Rain,160
2010-5-11,59,54,49,57,52,46,100,93,86,30.35,30.27,30.21,10,6,2,14,4,18,0.04,8,Rain,148
2010-5-12,76,67,57,63,60,55,100,80,60,30.25,30.20,30.12,10,8,4,14,6,18,0.00,5,,183
2010-5-13,81,69,56,65,59,57,100,75,49,30.30,30.24,30.18,10,4,0,12,3,17,0.00,4,Fog,155
2010-5-14,84,72,60,65,63,60,100,74,47,30.34,30.26,30.17,10,6,1,8,4,10,0.67,3,Rain-Thunderstorm,262
2010-5-15,79,69,59,68,62,59,100,77,54,30.31,30.21,30.11,10,6,0,14,4,16,0.13,4,Fog-Rain-Thunderstorm,330
2010-5-16,79,69,59,65,61,59,100,77,54,30.19,30.11,29.97,10,5,0,7,2,9,0.19,6,Fog-Rain-Thunderstorm,171
2010-5-17,76,69,62,66,62,59,100,84,68,30.06,29.98,29.86,10,8,2,17,4,21,0.46,7,Rain,155
2010-5-18,77,68,58,61,58,51,97,70,43,29.98,29.90,29.79,10,9,1,15,5,18,0.00,6,,306
2010-5-19,71,63,54,53,50,45,86,66,45,30.00,29.91,29.86,10,10,10,20,10,24,0.00,3,,343
2010-5-20,73,62,51,55,52,49,89,71,53,30.12,30.06,29.98,10,10,8,13,4,17,0.00,4,,150
2010-5-21,68,62,56,62,58,54,100,87,73,30.21,30.15,30.08,10,7,2,12,3,15,0.39,7,Rain,164
2010-5-22,77,68,58,65,61,57,100,84,68,30.15,30.09,30.01,10,7,0,14,3,16,T,6,Fog,162
2010-5-23,82,70,58,63,60,56,100,71,42,30.18,30.11,30.04,10,4,0,21,7,25,0.00,5,Fog,341
2010-5-24,74,66,57,61,59,56,100,81,61,30.19,30.11,30.06,10,9,4,13,2,21,0.17,5,Rain,150
2010-5-25,75,68,60,63,60,50,100,72,44,30.23,30.16,30.06,10,8,1,12,2,15,0.14,6,Rain,130
2010-5-26,81,69,57,65,60,56,100,74,48,30.08,29.98,29.90,10,10,7,5,6,6,0.00,3,Thunderstorm,320
2010-5-27,83,70,56,67,60,55,100,76,51,29.99,29.91,29.81,10,6,1,16,5,21,0.18,2,Rain-Thunderstorm,318
2010-5-28,81,71,60,65,61,55,97,74,51,29.96,29.88,29.82,10,8,2,20,5,23,T,2,Rain-Thunderstorm,290
2010-5-29,79,70,60,63,61,58,100,74,48,30.03,29.97,29.90,10,7,0,12,4,17,0.01,4,Fog,154
2010-5-30,80,71,62,66,62,59,93,74,54,30.09,30.03,29.96,10,9,5,20,3,23,0.01,4,Rain,171
2010-5-31,75,70,64,66,64,63,100,82,64,30.17,30.09,30.00,10,7,1,10,3,14,1.24,7,Rain,163